Iowa Falls Municipal Airport
Monday 6:15 PM
Weather Sunny
Temperature 88°
Dew Point 65°
Feels Like 89°
Relative Humidity 47
%
Visibility 10
mi
Pressure 1016.3
mb
Wind Direction S
Wind Speed 8
mph
Last Hour Precip 0.00
"
KIFA 262315Z AUTO 18007KT 10SM CLR 31/18 A3001 RMK AO2 T03090182

Recent Observations

Time Present Weather Temp DP Feels RH% Vsby Pressure Ceiling Direction Speed Gust 1h Precip
6:15PM
VFR
88° 65° 89° 47
%
10
mi
1016.3
mb
None S 8
mph
0.00"
KIFA 262315Z AUTO 18007KT 10SM CLR 31/18 A3001 RMK AO2 T03090182
5:55PM
VFR
88° 65° 90° 47
%
10
mi
1016.3
mb
None S 9
mph
0.00"
KIFA 262255Z AUTO 18008KT 10SM CLR 31/19 A3001 RMK AO2 T03120185
5:35PM
VFR
89° 64° 90° 44
%
10
mi
1016.3
mb
None S 10
mph
0.00"
KIFA 262235Z AUTO 18009KT 10SM CLR 32/18 A3001 RMK AO2 T03150177
5:15PM
VFR
89° 63° 90° 42
%
10
mi
1016.6
mb
None SSW 9
mph
0.00"
KIFA 262215Z AUTO 20008KT 10SM CLR 32/17 A3002 RMK AO2 T03170172
4:55PM
VFR
90° 64° 91° 43
%
10
mi
1017.3
mb
None SSW 9
mph
0.00"
KIFA 262155Z AUTO 20008KT 10SM CLR 32/18 A3004 RMK AO2 T03200177
4:35PM
VFR
89° 63° 90° 42
%
10
mi
1017.6
mb
None SW 7
mph
0.00"
KIFA 262135Z AUTO 23006KT 10SM CLR 32/17 A3005 RMK AO2 T03190174
4:15PM
VFR
90° 63° 91° 41
%
10
mi
1017.9
mb
None SW 8
mph
0.00"
KIFA 262115Z AUTO 22007KT 10SM CLR 32/17 A3006 RMK AO2 T03200173
3:55PM
VFR
90° 65° 91° 44
%
10
mi
1017.9
mb
None SW 12
mph
0.00"
KIFA 262055Z AUTO 22010KT 10SM CLR 32/18 A3006 RMK AO2 T03200181
3:35PM
VFR
90° 64° 91° 42
%
10
mi
1018.3
mb
None SW 10
mph
0.00"
KIFA 262035Z AUTO 22009KT 10SM CLR 32/18 A3007 RMK AO2 T03200176
3:15PM
VFR
90° 65° 92° 44
%
10
mi
1018.6
mb
None SW 12
mph
0.00"
KIFA 262015Z AUTO 22010KT 10SM CLR 32/19 A3008 RMK AO2 T03210185
2:55PM
VFR
89° 63° 90° 42
%
10
mi
1018.6
mb
None SW 12
mph
0.00"
KIFA 261955Z AUTO 22010KT 10SM CLR 32/17 A3008 RMK AO2 T03170174
2:35PM
VFR
89° 64° 91° 44
%
10
mi
1019.0
mb
None WSW 12
mph
0.00"
KIFA 261935Z AUTO 24010KT 10SM CLR 32/18 A3009 RMK AO2 T03170179
2:15PM
VFR
89° 64° 90° 44
%
10
mi
1019.0
mb
None SW 9
mph
0.00"
KIFA 261915Z AUTO 22008KT 10SM CLR 32/18 A3009 RMK AO2 T03150179
1:55PM
VFR
89° 67° 92° 48
%
10
mi
1019.0
mb
None WSW 9
mph
0.00"
KIFA 261855Z AUTO 24008KT 10SM CLR 32/19 A3009 RMK AO2 T03160193
1:35PM
VFR
89° 65° 90° 45
%
10
mi
1018.6
mb
None SW 8
mph
0.00"
KIFA 261835Z AUTO 23007KT 10SM CLR 32/18 A3008 RMK AO2 T03150181
1:15PM
VFR
89° 64° 90° 44
%
10
mi
1019.0
mb
None S 12
mph
0.00"
KIFA 261815Z AUTO 19010KT 10SM CLR 32/18 A3009 RMK AO2 T03150179
12:55PM
VFR
87° 66° 89° 49
%
10
mi
1019.0
mb
None SSW 10
mph
0.00"
KIFA 261755Z AUTO 21009KT 10SM CLR 31/19 A3009 RMK AO2 T03070187 10307 20207
12:35PM
VFR
86° 67° 89° 53
%
10
mi
1019.0
mb
None SW 13
mph
0.00"
KIFA 261735Z AUTO 22011KT 10SM CLR 30/20 A3009 RMK AO2 T03020195
12:15PM
VFR
86° 68° 90° 54
%
10
mi
1018.6
mb
None SSW 13
mph
0.00"
KIFA 261715Z AUTO 20011KT 10SM CLR 30/20 A3008 RMK AO2 T03010199
11:55AM
VFR
86° 67° 89° 54
%
10
mi
1018.6
mb
None SSW 10
mph
0.00"
KIFA 261655Z AUTO 21009KT 10SM CLR 30/20 A3008 RMK AO2 T02990195
Click here to show this page without METARs/TAFs included